Terminal Aerodrome Forecast
Issued by NWS Cleveland, OH

Home | Current Version | Previous Version | Graphics & Text | Print | Product List | Glossary On
Versions: 1 2 3 4 5 6 7 8 9 10 11 12 13 14 15 16 17 18 19
650
FTUS41 KCLE 231759 AAA
TAFYNG
TAF AMD
KYNG 231759Z 2318/2418 08014KT 6SM BR BKN025 OVC060
      TEMPO 2318/2322 4SM -DZ BR BKN012
     FM232200 06011KT 4SM -RA BR BKN010 OVC025
     FM240400 03005KT 1 1/2SM -RA BR OVC005
     FM241600 33006KT 4SM BR OVC008=

USA.gov is the U.S. government's official web portal to all federal, state and local government web resources and services.